Time;durP1;ratioP1;P1;durP2;ratioP2;P2;SDS_P1;SDS_P2;PMS_P1;PMS_P2;Temp;Humidity;BMP_temperature;BMP_pressure;BME280_temperature;BME280_humidity;BME280_pressure;Samples;Min_cycle;Max_cycle;Signal;HPM_P1;HPM_P2
2022/03/27 00:00:58;;;;;;;3.92;3.30;;;;;;;9.33;71.80;103022.22;5098019;28;20020;-87
2022/03/27 00:03:23;;;;;;;4.47;3.65;;;;;;;9.36;73.93;103021.91;5095868;28;20039;-87
2022/03/27 00:05:49;;;;;;;4.70;3.83;;;;;;;9.27;73.84;103023.69;5113132;28;20036;-87
2022/03/27 00:08:14;;;;;;;5.40;3.97;;;;;;;9.26;73.84;103019.25;5096225;28;20034;-87
2022/03/27 00:13:24;;;;;;;4.95;3.72;;;;;;;9.26;74.13;103034.69;5097526;28;20031;-87
2022/03/27 00:15:52;;;;;;;4.47;3.95;;;;;;;9.28;74.81;103038.06;5097400;28;20043;-87
2022/03/27 00:18:21;;;;;;;4.25;3.72;;;;;;;9.24;73.67;103037.53;5079608;28;20028;-87
2022/03/27 00:20:49;;;;;;;6.30;3.97;;;;;;;9.19;74.97;103029.00;5097532;28;20028;-87
2022/03/27 00:23:18;;;;;;;5.55;4.13;;;;;;;9.19;76.62;103037.13;5095866;28;20028;-87
2022/03/27 00:25:45;;;;;;;4.93;3.90;;;;;;;9.13;75.92;103032.34;5095876;28;20024;-87
2022/03/27 00:28:11;;;;;;;5.72;4.07;;;;;;;9.10;76.11;103028.06;5096299;28;20115;-87
2022/03/27 00:30:38;;;;;;;4.80;3.60;;;;;;;9.02;75.96;103019.88;5095657;28;20024;-87
2022/03/27 00:33:08;;;;;;;4.57;3.53;;;;;;;9.05;76.42;103027.69;5095271;28;20024;-87
2022/03/27 00:35:37;;;;;;;4.18;3.53;;;;;;;8.99;76.93;103016.59;5096106;28;20016;-87
2022/03/27 00:38:02;;;;;;;4.75;3.63;;;;;;;9.01;76.88;103026.28;5095551;28;20032;-87
2022/03/27 00:40:28;;;;;;;3.97;3.53;;;;;;;8.99;77.00;103028.28;5078987;28;20035;-87
2022/03/27 00:42:53;;;;;;;5.10;3.58;;;;;;;8.97;76.58;103027.56;5095570;28;20440;-88
2022/03/27 00:45:27;;;;;;;4.88;3.78;;;;;;;8.92;75.00;103021.78;5097163;28;20032;-87
2022/03/27 00:47:56;;;;;;;3.95;3.55;;;;;;;8.86;76.86;103020.53;5096518;28;20028;-87
2022/03/27 00:50:24;;;;;;;4.43;3.35;;;;;;;8.84;77.23;103021.66;5112463;28;20016;-87
2022/03/27 00:52:54;;;;;;;3.50;3.20;;;;;;;8.83;77.70;103023.53;5112837;28;20035;-87
2022/03/27 00:55:19;;;;;;;3.92;3.15;;;;;;;8.81;77.65;103022.81;5111736;28;20024;-87
2022/03/27 00:57:45;;;;;;;4.57;3.30;;;;;;;8.72;77.72;103013.72;5096556;28;20476;-87
2022/03/27 01:00:36;;;;;;;4.53;3.45;;;;;;;8.72;75.84;103007.47;5096516;28;20104;-87
2022/03/27 01:03:04;;;;;;;4.03;3.50;;;;;;;8.76;77.85;103031.38;5096838;28;20020;-87
2022/03/27 01:05:31;;;;;;;4.40;3.33;;;;;;;8.70;77.86;103015.75;5112070;28;20076;-87
2022/03/27 01:07:56;;;;;;;5.15;3.30;;;;;;;8.68;77.28;103006.06;5095004;28;20042;-87
2022/03/27 01:10:23;;;;;;;5.15;3.70;;;;;;;8.65;78.04;103007.25;5096510;28;20020;-87
2022/03/27 01:12:49;;;;;;;4.90;3.53;;;;;;;8.62;77.81;103012.94;5096821;28;20024;-87
2022/03/27 01:15:31;;;;;;;5.05;3.42;;;;;;;8.66;75.46;103018.91;5094960;28;20028;-87
2022/03/27 01:18:08;;;;;;;4.30;3.40;;;;;;;8.64;77.04;103016.34;5096354;28;20036;-87
2022/03/27 01:20:40;;;;;;;4.43;3.53;;;;;;;8.57;78.07;103009.84;5112268;28;20028;-87
2022/03/27 01:23:13;;;;;;;5.40;3.22;;;;;;;8.59;77.56;103015.94;5112170;28;20059;-87
2022/03/27 01:25:42;;;;;;;5.50;3.33;;;;;;;8.52;78.25;103015.69;5094874;28;20038;-87
2022/03/27 01:28:11;;;;;;;5.72;3.47;;;;;;;8.51;78.70;103013.13;5112070;28;20051;-87
2022/03/27 01:30:37;;;;;;;4.88;3.60;;;;;;;8.47;78.09;103015.28;5112218;28;20380;-87
2022/03/27 01:33:05;;;;;;;4.63;3.72;;;;;;;8.50;78.99;103024.94;5094717;28;20028;-87
2022/03/27 01:35:30;;;;;;;4.75;3.70;;;;;;;8.41;79.54;103015.84;5094840;28;20051;-87
2022/03/27 01:37:56;;;;;;;4.93;3.78;;;;;;;8.41;78.99;103015.84;5094417;28;20032;-87
2022/03/27 01:40:24;;;;;;;4.45;4.00;;;;;;;8.40;78.71;103017.69;5094709;28;20027;-87
2022/03/27 01:42:53;;;;;;;5.63;4.00;;;;;;;8.32;79.68;103009.47;5111721;28;20060;-87
2022/03/27 01:45:19;;;;;;;4.15;3.75;;;;;;;8.30;79.83;102997.94;5095594;28;20055;-87
2022/03/27 01:47:53;;;;;;;4.20;3.80;;;;;;;8.32;78.86;103022.13;5095348;28;20047;-87
2022/03/27 01:50:19;;;;;;;5.07;4.05;;;;;;;8.23;80.07;103008.50;5094559;28;20356;-87
2022/03/27 01:52:45;;;;;;;4.55;3.72;;;;;;;8.28;80.18;103016.16;5094081;28;20020;-87
2022/03/27 01:55:13;;;;;;;4.18;3.50;;;;;;;8.17;79.40;103011.78;5095240;28;20063;-87
2022/03/27 01:57:41;;;;;;;5.28;4.40;;;;;;;8.16;79.65;103001.13;5095960;28;20019;-87
2022/03/27 02:00:09;;;;;;;5.47;4.25;;;;;;;8.14;80.13;103014.78;5111446;28;20016;-87
2022/03/27 02:02:38;;;;;;;6.05;4.35;;;;;;;8.09;80.17;103003.56;5093908;28;20062;-87
2022/03/27 02:05:04;;;;;;;5.07;4.30;;;;;;;8.12;80.99;103013.22;5094423;28;20075;-87
2022/03/27 02:07:50;;;;;;;5.50;4.20;;;;;;;8.13;78.80;103023.03;5093860;28;20054;-87
2022/03/27 02:10:17;;;;;;;4.97;4.05;;;;;;;8.04;81.07;103020.19;5094128;28;20028;-87
2022/03/27 02:12:43;;;;;;;6.20;4.15;;;;;;;8.00;81.33;103013.41;5110558;28;20384;-87
2022/03/27 02:15:09;;;;;;;5.03;3.95;;;;;;;7.95;81.03;103012.97;5094412;28;20020;-87
2022/03/27 02:17:42;;;;;;;5.45;4.28;;;;;;;7.91;80.15;103014.25;5094362;28;20020;-87
2022/03/27 02:20:09;;;;;;;6.00;4.00;;;;;;;7.85;81.28;103004.03;5076864;28;20024;-86
2022/03/27 02:22:37;;;;;;;6.45;4.25;;;;;;;7.86;80.53;103011.97;5109744;28;20472;-87
2022/03/27 02:25:06;;;;;;;4.85;3.80;;;;;;;7.83;80.99;103017.69;5094640;28;20043;-87
2022/03/27 02:27:33;;;;;;;5.80;4.13;;;;;;;7.73;81.19;103004.16;5093642;28;20040;-87
2022/03/27 02:29:59;;;;;;;4.88;4.22;;;;;;;7.72;82.12;103013.28;5094313;28;20024;-86
2022/03/27 02:32:27;;;;;;;5.18;4.22;;;;;;;7.73;80.46;103022.25;5094519;28;20028;-87
2022/03/27 02:34:54;;;;;;;5.95;4.60;;;;;;;7.64;81.29;103001.50;5093535;28;20036;-87
2022/03/27 02:37:20;;;;;;;6.00;4.70;;;;;;;7.66;81.65;102999.50;5094368;28;20476;-87
2022/03/27 02:39:48;;;;;;;5.28;4.53;;;;;;;7.73;79.91;103001.47;5093015;28;20097;-87
2022/03/27 02:42:21;;;;;;;5.65;4.45;;;;;;;7.90;81.51;103015.28;5093368;28;20059;-87
2022/03/27 02:44:47;;;;;;;6.13;4.60;;;;;;;7.89;81.63;103009.00;5093375;28;20028;-86
2022/03/27 02:47:20;;;;;;;6.97;5.47;;;;;;;7.96;81.45;103001.16;5094297;28;20038;-87
2022/03/27 02:49:45;;;;;;;6.72;5.38;;;;;;;8.11;82.26;103009.66;5093133;28;20031;-87
2022/03/27 02:52:14;;;;;;;8.00;6.10;;;;;;;8.23;79.26;103007.66;5092798;28;20027;-83
2022/03/27 02:54:40;;;;;;;9.85;7.32;;;;;;;8.24;81.21;103003.94;5093051;28;20039;-82
2022/03/27 02:57:08;;;;;;;8.82;6.80;;;;;;;8.32;80.89;103009.47;5093954;28;20028;-82
2022/03/27 02:59:36;;;;;;;9.13;7.43;;;;;;;8.37;80.18;103009.00;5110066;28;20442;-82
2022/03/27 03:02:04;;;;;;;12.00;8.57;;;;;;;8.40;82.00;103009.59;5093025;28;20062;-82
2022/03/27 03:04:34;;;;;;;10.57;7.50;;;;;;;8.43;81.75;103005.75;5093601;28;20484;-82
2022/03/27 03:07:00;;;;;;;12.40;8.80;;;;;;;8.47;82.13;103003.59;5094681;28;20028;-82
2022/03/27 03:09:26;;;;;;;11.77;8.75;;;;;;;8.48;81.91;103013.44;5092876;28;20531;-82
2022/03/27 03:11:51;;;;;;;11.38;8.82;;;;;;;8.47;81.63;103007.16;5093374;28;20132;-82
2022/03/27 03:14:17;;;;;;;10.90;8.75;;;;;;;8.49;81.35;103002.47;5093659;28;20424;-82
2022/03/27 03:16:45;;;;;;;10.65;8.65;;;;;;;8.50;82.41;103006.84;5092494;28;20089;-82
2022/03/27 03:19:10;;;;;;;12.35;8.98;;;;;;;8.50;83.40;103004.16;5093135;28;20024;-82
2022/03/27 03:21:36;;;;;;;12.13;8.82;;;;;;;8.53;81.76;103005.72;5093708;28;20042;-82
2022/03/27 03:24:01;;;;;;;9.07;7.22;;;;;;;8.56;82.72;103002.72;5094255;28;20020;-81
2022/03/27 03:26:27;;;;;;;9.07;7.55;;;;;;;8.60;82.17;103004.97;5093983;28;20059;-82
2022/03/27 03:28:52;;;;;;;9.52;7.20;;;;;;;8.63;81.70;103000.28;5075777;28;20030;-82
2022/03/27 03:31:18;;;;;;;11.13;8.25;;;;;;;8.66;82.15;102991.84;5109861;28;20444;-82
2022/03/27 03:33:43;;;;;;;10.93;8.55;;;;;;;8.67;80.90;102988.16;5093816;28;20031;-82
2022/03/27 03:36:09;;;;;;;12.68;8.45;;;;;;;8.68;81.84;102995.25;5093887;28;20516;-82
2022/03/27 03:38:34;;;;;;;10.52;8.45;;;;;;;8.70;81.80;102987.84;5092511;28;20028;-83
2022/03/27 03:41:00;;;;;;;9.40;7.90;;;;;;;8.74;81.83;102997.34;5092511;28;20452;-82
2022/03/27 03:43:28;;;;;;;11.07;8.02;;;;;;;8.77;80.79;102987.09;5058682;28;20122;-82
2022/03/27 03:45:53;;;;;;;11.48;8.73;;;;;;;8.80;81.80;102990.47;5092752;28;20094;-82
2022/03/27 03:48:20;;;;;;;9.57;7.80;;;;;;;8.78;81.11;102993.34;5109441;28;20063;-82
2022/03/27 03:50:45;;;;;;;9.32;7.32;;;;;;;8.77;82.00;102989.78;5092446;28;20070;-83
2022/03/27 03:53:10;;;;;;;9.32;7.78;;;;;;;8.82;81.03;102986.63;5092455;28;20123;-82
2022/03/27 03:55:36;;;;;;;11.48;7.90;;;;;;;8.80;81.28;102996.75;5076074;28;20024;-82
2022/03/27 03:58:04;;;;;;;11.88;9.13;;;;;;;8.90;79.67;102999.41;5093368;28;20068;-85
2022/03/27 04:00:30;;;;;;;11.10;8.80;;;;;;;8.77;81.75;102989.78;5093296;28;20035;-85
2022/03/27 04:02:56;;;;;;;11.63;8.52;;;;;;;8.75;81.51;102997.22;5092411;28;20035;-85
2022/03/27 04:05:21;;;;;;;9.20;7.68;;;;;;;8.75;81.87;102999.94;5092318;28;20048;-85
2022/03/27 04:07:47;;;;;;;9.43;7.57;;;;;;;8.75;82.12;102993.66;5093013;28;20028;-85
2022/03/27 04:10:15;;;;;;;7.95;6.90;;;;;;;8.78;81.96;103001.47;5093463;28;20035;-85
2022/03/27 04:12:40;;;;;;;9.07;7.55;;;;;;;8.81;81.65;103001.16;5108887;28;20020;-85
2022/03/27 04:15:06;;;;;;;8.48;7.07;;;;;;;8.85;80.73;102999.84;5093490;28;20103;-82
2022/03/27 04:17:33;;;;;;;8.68;7.50;;;;;;;8.89;80.79;103000.41;5075453;28;20032;-83
2022/03/27 04:19:58;;;;;;;10.25;7.47;;;;;;;8.92;80.75;103008.25;5093722;28;20028;-83
2022/03/27 04:22:24;;;;;;;10.70;7.80;;;;;;;8.93;81.44;103001.78;5092200;28;20038;-82
2022/03/27 04:24:49;;;;;;;10.05;8.10;;;;;;;8.96;80.86;102996.06;5108699;28;20066;-82
2022/03/27 04:27:17;;;;;;;10.77;8.70;;;;;;;8.97;80.59;102989.66;5109391;28;20031;-82
2022/03/27 04:29:43;;;;;;;9.48;8.10;;;;;;;8.95;81.07;102988.97;5094087;28;20112;-82
2022/03/27 04:32:11;;;;;;;9.73;8.32;;;;;;;8.96;80.91;102990.66;5097360;28;20059;-82
2022/03/27 04:34:37;;;;;;;9.32;7.97;;;;;;;8.94;80.08;102992.69;5097000;28;20020;-82
2022/03/27 04:37:05;;;;;;;11.07;8.82;;;;;;;8.93;80.87;102991.84;5095562;28;20051;-82
2022/03/27 04:39:30;;;;;;;10.48;8.57;;;;;;;8.92;80.65;102998.25;5096986;28;20024;-82
2022/03/27 04:41:55;;;;;;;10.52;8.50;;;;;;;8.90;81.65;102999.41;5097112;28;20023;-82
2022/03/27 04:44:21;;;;;;;9.65;8.10;;;;;;;8.88;81.13;102996.84;5078601;28;20031;-82
2022/03/27 04:46:46;;;;;;;11.70;8.68;;;;;;;8.86;81.87;102993.44;5095323;28;20392;-82
2022/03/27 04:49:13;;;;;;;11.40;9.27;;;;;;;8.86;81.55;102993.44;5095250;28;20104;-82
2022/03/27 04:51:39;;;;;;;10.18;8.55;;;;;;;8.88;80.90;102991.44;5079605;28;20032;-82
2022/03/27 04:54:04;;;;;;;11.50;8.77;;;;;;;8.84;81.00;102991.88;5095945;28;20470;-82
2022/03/27 04:56:31;;;;;;;9.27;8.23;;;;;;;8.81;80.41;102989.47;5095790;28;20032;-82
2022/03/27 04:58:57;;;;;;;11.50;8.77;;;;;;;8.82;81.56;102992.03;5095393;28;20448;-82
2022/03/27 05:01:22;;;;;;;10.30;8.73;;;;;;;8.83;81.68;103001.88;5095305;28;20199;-82
2022/03/27 05:03:47;;;;;;;8.13;7.25;;;;;;;8.80;82.07;102999.47;5096542;28;20024;-82
2022/03/27 05:06:13;;;;;;;9.45;7.70;;;;;;;8.82;82.06;103002.03;5095222;28;20456;-82
2022/03/27 05:08:39;;;;;;;10.05;7.88;;;;;;;8.84;82.05;103011.69;5078146;28;20024;-82
2022/03/27 05:11:06;;;;;;;9.95;7.78;;;;;;;8.86;80.96;103004.28;5112073;28;20469;-82
2022/03/27 05:13:31;;;;;;;8.20;6.90;;;;;;;8.85;81.48;103007.97;5094998;28;20119;-82
2022/03/27 05:15:57;;;;;;;10.10;8.80;;;;;;;8.81;81.48;103006.56;5096315;28;20098;-82
2022/03/27 05:18:22;;;;;;;9.43;8.32;;;;;;;8.81;80.58;103011.97;5095263;28;20047;-82
2022/03/27 05:20:48;;;;;;;11.10;9.27;;;;;;;8.80;80.89;103018.41;5111870;28;20375;-83
2022/03/27 05:23:13;;;;;;;12.48;10.07;;;;;;;8.72;83.02;103013.72;5094889;28;20540;-82
2022/03/27 05:25:45;;;;;;;10.73;8.95;;;;;;;8.71;81.75;103013.88;5112628;28;20356;-82
2022/03/27 05:28:12;;;;;;;11.98;9.38;;;;;;;8.76;81.25;103011.59;5095977;28;20501;-83
2022/03/27 05:30:38;;;;;;;14.30;10.45;;;;;;;8.75;81.98;103028.81;5095919;28;20024;-83
2022/03/27 05:33:04;;;;;;;11.98;9.63;;;;;;;8.72;81.44;103024.56;5095134;28;20051;-83
2022/03/27 05:35:30;;;;;;;11.32;9.15;;;;;;;8.73;82.65;103020.88;5095928;28;20036;-83
2022/03/27 05:37:56;;;;;;;11.95;9.73;;;;;;;8.74;81.76;103027.13;5094834;28;20511;-83
2022/03/27 05:40:23;;;;;;;13.88;11.18;;;;;;;8.74;82.19;103030.69;5077336;28;20122;-83
2022/03/27 05:42:49;;;;;;;14.88;11.15;;;;;;;8.72;82.54;103027.28;5094677;28;20028;-82
2022/03/27 05:45:16;;;;;;;13.73;10.63;;;;;;;8.74;82.87;103036.09;5094572;28;20028;-81
2022/03/27 05:47:42;;;;;;;12.80;9.75;;;;;;;8.70;82.79;103033.84;5094311;28;20080;-82
2022/03/27 05:50:09;;;;;;;12.27;9.57;;;;;;;8.67;82.41;103032.28;5095497;28;20027;-82
2022/03/27 05:52:34;;;;;;;15.05;11.68;;;;;;;8.69;82.29;103024.88;5077826;28;20032;-92
2022/03/27 05:55:00;;;;;;;14.52;10.48;;;;;;;8.73;81.47;103025.44;5078117;28;20050;-89
2022/03/27 05:57:29;;;;;;;12.95;9.63;;;;;;;8.67;82.42;103026.03;5095342;28;20035;-93
2022/03/27 05:59:54;;;;;;;13.77;10.05;;;;;;;8.66;82.57;103029.72;5095269;28;20456;-90
2022/03/27 06:02:25;;;;;;;13.27;9.82;;;;;;;8.66;82.24;103033.28;5112437;28;20081;-90
2022/03/27 06:04:53;;;;;;;12.43;9.93;;;;;;;8.70;80.27;103041.97;5094672;28;20052;-89
2022/03/27 06:07:27;;;;;;;13.98;10.30;;;;;;;8.69;82.10;103042.97;5094266;28;20072;-90
2022/03/27 06:09:54;;;;;;;14.00;11.02;;;;;;;8.68;81.09;103046.66;5111457;28;20081;-82
2022/03/27 06:12:19;;;;;;;13.30;10.57;;;;;;;8.69;81.31;103051.94;5094168;28;20097;-81
2022/03/27 06:14:44;;;;;;;12.27;10.00;;;;;;;8.71;81.33;103054.47;5094204;28;20440;-81
2022/03/27 06:17:10;;;;;;;13.02;10.25;;;;;;;8.74;81.01;103051.47;5094415;28;20115;-81
2022/03/27 06:19:35;;;;;;;13.85;10.40;;;;;;;8.73;81.34;103045.22;5094825;28;20383;-82
2022/03/27 06:22:01;;;;;;;13.45;10.32;;;;;;;8.72;80.63;103040.81;5076820;28;20031;-81
2022/03/27 06:24:27;;;;;;;12.15;9.38;;;;;;;8.67;80.38;103048.53;5076487;28;20464;-81
2022/03/27 06:26:53;;;;;;;13.02;9.90;;;;;;;8.66;79.85;103052.22;5094910;28;20020;-81
2022/03/27 06:29:21;;;;;;;12.02;9.00;;;;;;;8.59;81.20;103049.28;5110433;28;20063;-81
2022/03/27 06:31:48;;;;;;;13.52;8.98;;;;;;;8.63;81.07;103055.22;5094415;28;20041;-81
2022/03/27 06:34:13;;;;;;;13.38;9.90;;;;;;;8.66;81.70;103056.81;5093775;28;20039;-81
2022/03/27 06:36:41;;;;;;;13.77;10.68;;;;;;;8.67;82.04;103062.06;5093186;28;20020;-81
2022/03/27 06:39:07;;;;;;;13.60;10.13;;;;;;;8.70;81.62;103064.47;5110896;28;20028;-81
2022/03/27 06:41:33;;;;;;;13.43;9.10;;;;;;;8.72;80.83;103064.31;5110308;28;20035;-81
2022/03/27 06:43:59;;;;;;;12.02;8.77;;;;;;;8.68;81.61;103065.59;5093725;28;20035;-81
2022/03/27 06:46:24;;;;;;;10.73;7.95;;;;;;;8.73;80.43;103063.31;5093288;28;20020;-82
2022/03/27 06:48:50;;;;;;;14.10;10.07;;;;;;;8.72;80.18;103062.44;5109971;28;20096;-82
2022/03/27 06:51:16;;;;;;;14.13;9.88;;;;;;;8.67;81.85;103063.94;5094453;28;20035;-81
2022/03/27 06:53:43;;;;;;;12.05;8.98;;;;;;;8.65;81.21;103065.91;5109146;28;20031;-81
2022/03/27 06:56:09;;;;;;;12.07;8.80;;;;;;;8.66;81.67;103065.75;5094325;28;20059;-82
2022/03/27 06:58:34;;;;;;;13.73;9.32;;;;;;;8.68;81.56;103055.66;5094845;28;20063;-81
2022/03/27 07:03:46;;;;;;;14.63;9.68;;;;;;;8.84;81.17;103062.28;5094530;28;20183;-81
2022/03/27 07:06:16;;;;;;;15.60;10.63;;;;;;;8.92;80.37;103063.22;5092489;28;20507;-81
2022/03/27 07:08:42;;;;;;;17.67;11.80;;;;;;;8.96;80.37;103069.19;5093985;28;20102;-81
2022/03/27 07:11:07;;;;;;;16.63;10.98;;;;;;;8.99;79.35;103068.03;5094071;28;20110;-81
2022/03/27 07:13:34;;;;;;;15.05;10.93;;;;;;;8.99;80.25;103058.09;5076022;28;20114;-82
2022/03/27 07:15:59;;;;;;;17.98;11.35;;;;;;;9.01;80.76;103061.47;5094047;28;20036;-81
2022/03/27 07:18:29;;;;;;;14.48;10.27;;;;;;;8.98;79.98;103060.94;5093659;28;20029;-82
2022/03/27 07:20:54;;;;;;;15.40;10.57;;;;;;;8.96;80.49;103058.34;5094374;28;20043;-82
2022/03/27 07:23:21;;;;;;;15.85;10.50;;;;;;;8.99;80.24;103058.09;5075924;28;20024;-81
2022/03/27 07:25:50;;;;;;;17.33;11.63;;;;;;;9.05;80.13;103060.19;5094440;28;20047;-81
2022/03/27 07:28:16;;;;;;;16.15;10.98;;;;;;;9.08;80.30;103056.28;5093944;28;20020;-81
2022/03/27 07:30:43;;;;;;;14.43;9.93;;;;;;;9.05;79.70;103064.72;5092874;28;20059;-81
2022/03/27 07:33:09;;;;;;;17.63;12.02;;;;;;;9.11;79.81;103064.13;5094165;28;20077;-81
2022/03/27 07:35:34;;;;;;;19.23;13.02;;;;;;;9.18;78.05;103056.25;5092669;28;20024;-80
2022/03/27 07:38:01;;;;;;;19.73;13.07;;;;;;;9.20;79.83;103071.34;5093757;28;20024;-81
2022/03/27 07:40:27;;;;;;;21.67;14.13;;;;;;;9.23;79.61;103072.91;5092653;28;20055;-81
2022/03/27 07:42:54;;;;;;;18.60;12.65;;;;;;;9.24;79.02;103067.34;5093689;28;20028;-81
2022/03/27 07:45:22;;;;;;;21.00;14.27;;;;;;;9.27;79.18;103068.88;5092515;28;20039;-82
2022/03/27 07:47:49;;;;;;;19.17;12.43;;;;;;;9.31;79.51;103062.16;5092467;28;20016;-81
2022/03/27 07:50:16;;;;;;;18.42;12.52;;;;;;;9.36;78.77;103067.97;5092257;28;20054;-81
2022/03/27 07:52:43;;;;;;;19.33;13.43;;;;;;;9.42;79.08;103061.94;5109327;28;20040;-81
2022/03/27 07:55:10;;;;;;;21.02;13.80;;;;;;;9.53;78.69;103071.69;5075103;28;20044;-81
2022/03/27 07:57:35;;;;;;;22.10;15.20;;;;;;;9.64;78.63;103065.19;5109075;28;20056;-81
2022/03/27 08:00:02;;;;;;;22.23;15.00;;;;;;;9.72;77.81;103061.72;5109260;28;20132;-81
2022/03/27 08:02:27;;;;;;;21.23;14.27;;;;;;;9.78;78.03;103061.09;5093629;28;20032;-81
2022/03/27 08:04:53;;;;;;;20.25;13.18;;;;;;;9.85;77.51;103064.88;5095962;28;20126;-81
2022/03/27 08:07:21;;;;;;;20.20;12.88;;;;;;;9.92;77.21;103065.97;5063399;28;20052;-82
2022/03/27 08:09:47;;;;;;;18.38;12.32;;;;;;;9.96;76.92;103063.78;5113047;28;20518;-81
2022/03/27 08:12:12;;;;;;;18.65;11.95;;;;;;;9.96;76.95;103059.19;5079193;28;20031;-81
2022/03/27 08:14:39;;;;;;;19.88;12.65;;;;;;;9.99;76.23;103052.59;5097327;28;20478;-81
2022/03/27 08:17:06;;;;;;;15.95;10.90;;;;;;;10.02;75.60;103055.00;5095974;28;20038;-81
2022/03/27 08:19:32;;;;;;;17.67;11.25;;;;;;;10.06;76.45;103056.41;5097764;28;20032;-81
2022/03/27 08:22:01;;;;;;;16.30;10.95;;;;;;;10.04;75.81;103058.44;5096907;28;20024;-81
2022/03/27 08:24:27;;;;;;;15.57;10.77;;;;;;;10.10;76.17;103055.06;5079187;28;20024;-81
2022/03/27 08:26:55;;;;;;;17.55;11.25;;;;;;;10.18;75.34;103057.84;5097131;28;20035;-81
2022/03/27 08:29:41;;;;;;;16.77;11.20;;;;;;;10.20;75.72;103063.09;5112707;28;20051;-81
2022/03/27 08:32:09;;;;;;;17.00;11.13;;;;;;;10.25;75.58;103059.94;5097698;28;20027;-81
2022/03/27 08:34:36;;;;;;;16.65;11.10;;;;;;;10.24;75.61;103069.91;5096193;28;20024;-81
2022/03/27 08:37:05;;;;;;;18.08;11.65;;;;;;;10.37;75.14;103063.25;5095298;28;20036;-81
2022/03/27 08:39:31;;;;;;;20.05;12.93;;;;;;;10.43;74.82;103070.75;5096775;28;20024;-81
2022/03/27 08:41:57;;;;;;;15.55;10.70;;;;;;;10.47;74.10;103066.72;5097731;28;20032;-81
2022/03/27 08:44:26;;;;;;;17.15;12.25;;;;;;;10.56;73.43;103060.31;5096797;28;20032;-82
2022/03/27 08:46:56;;;;;;;20.83;13.40;;;;;;;10.60;73.46;103060.84;5095453;28;20035;-81
2022/03/27 08:50:02;;;;;;;18.92;12.48;;;;;;;10.57;72.87;103064.75;5096875;28;20119;-82
2022/03/27 08:52:35;;;;;;;18.75;12.25;;;;;;;10.60;73.47;103052.69;5097084;28;20118;-81
2022/03/27 08:55:05;;;;;;;20.73;14.18;;;;;;;10.69;73.09;103063.44;5112402;28;20028;-81
2022/03/27 08:57:53;;;;;;;20.77;13.93;;;;;;;10.69;72.87;103057.16;5095416;28;20048;-82
2022/03/27 09:00:21;;;;;;;19.25;12.65;;;;;;;10.76;73.29;103060.06;5112184;28;20062;-81
2022/03/27 09:02:57;;;;;;;18.70;13.18;;;;;;;10.90;72.11;103061.34;5096374;28;20085;-82
2022/03/27 09:05:24;;;;;;;17.90;12.88;;;;;;;10.90;72.33;103073.03;5094750;28;20498;-81
2022/03/27 09:07:50;;;;;;;18.85;13.02;;;;;;;10.95;71.79;103072.56;5095996;28;20051;-81
2022/03/27 09:10:17;;;;;;;16.60;12.00;;;;;;;10.92;71.79;103076.44;5078100;28;20039;-82
2022/03/27 09:12:44;;;;;;;16.45;11.65;;;;;;;10.90;71.60;103073.03;5077902;28;20597;-83
2022/03/27 09:15:11;;;;;;;16.10;11.80;;;;;;;10.92;71.58;103071.00;5094146;28;20490;-83
2022/03/27 09:18:08;;;;;;;16.38;11.73;;;;;;;11.02;71.13;103079.88;5094580;28;20039;-82
2022/03/27 09:20:41;;;;;;;16.58;11.48;;;;;;;10.99;71.04;103085.63;5096493;28;20020;-82
2022/03/27 09:23:18;;;;;;;15.40;11.13;;;;;;;11.10;70.34;103084.50;5096115;28;20020;-82
2022/03/27 09:25:49;;;;;;;14.55;10.27;;;;;;;11.00;70.31;103087.34;5112616;28;20035;-82
2022/03/27 09:28:24;;;;;;;13.67;9.87;;;;;;;11.00;69.78;103087.34;5096046;28;20053;-82
2022/03/27 09:30:50;;;;;;;13.68;9.70;;;;;;;11.00;69.83;103089.22;5094511;28;20464;-83
2022/03/27 09:33:46;;;;;;;12.43;9.05;;;;;;;10.99;69.76;103087.50;5096671;28;20093;-82
2022/03/27 09:36:18;;;;;;;15.38;10.10;;;;;;;10.99;70.15;103085.63;5096371;28;20032;-82
2022/03/27 09:38:57;;;;;;;;;;;;;;;11.13;69.23;103081.47;5079048;28;20526;-82
2022/03/27 09:41:33;;;;;;;13.05;8.75;;;;;;;11.30;69.35;103078.78;5095456;28;19908;-82
2022/03/27 09:44:01;;;;;;;13.63;9.25;;;;;;;11.36;68.91;103075.41;5095413;28;20368;-82
2022/03/27 09:46:27;;;;;;;12.82;9.05;;;;;;;11.49;68.45;103074.94;5094272;28;20031;-82
2022/03/27 09:48:56;;;;;;;12.18;9.10;;;;;;;11.50;68.32;103072.03;5093903;28;20035;-82
2022/03/27 09:51:22;;;;;;;13.80;9.43;;;;;;;11.50;68.38;103058.44;5095752;28;20028;-82
2022/03/27 09:53:57;;;;;;;15.10;10.23;;;;;;;11.70;68.29;103066.28;5094829;28;20020;-83
2022/03/27 09:56:29;;;;;;;13.98;9.75;;;;;;;11.85;67.67;103067.28;5095470;28;20024;-82
2022/03/27 09:58:54;;;;;;;11.93;8.68;;;;;;;11.95;67.19;103059.00;5111985;28;20535;-82
2022/03/27 10:01:24;;;;;;;11.63;8.30;;;;;;;12.13;66.86;103057.97;5094451;28;20106;-82
2022/03/27 10:03:59;;;;;;;11.15;8.57;;;;;;;12.28;66.49;103054.38;5093988;28;20020;-82
2022/03/27 10:06:29;;;;;;;11.70;8.32;;;;;;;12.45;66.08;103059.78;5094722;28;20059;-82
2022/03/27 10:08:55;;;;;;;13.65;9.70;;;;;;;12.57;65.52;103038.50;5094825;28;20027;-82
2022/03/27 10:11:22;;;;;;;14.45;10.15;;;;;;;12.61;65.18;103034.41;5095357;28;20020;-82
2022/03/27 10:13:50;;;;;;;15.15;10.32;;;;;;;12.82;65.05;103041.97;5094416;28;20459;-82
2022/03/27 10:16:30;;;;;;;14.65;9.35;;;;;;;12.96;64.32;103038.50;5094067;28;20097;-82
2022/03/27 10:19:05;;;;;;;12.50;8.93;;;;;;;13.22;63.44;103036.50;5110955;28;20444;-83
2022/03/27 10:21:32;;;;;;;11.13;8.20;;;;;;;13.48;62.65;103036.19;5111153;28;20115;-82
2022/03/27 10:24:16;;;;;;;10.82;8.07;;;;;;;13.75;62.76;103037.50;5099309;28;20108;-82
2022/03/27 10:26:44;;;;;;;10.27;8.18;;;;;;;13.91;61.50;103030.22;5092735;28;20067;-83
2022/03/27 10:29:12;;;;;;;13.35;9.65;;;;;;;14.02;60.82;103030.63;5093283;28;20355;-83
2022/03/27 10:31:38;;;;;;;13.02;8.70;;;;;;;14.19;60.46;103030.47;5094459;28;20032;-82
2022/03/27 10:34:05;;;;;;;12.32;9.40;;;;;;;14.52;59.40;103024.63;5094634;28;20020;-83
2022/03/27 10:37:06;;;;;;;9.93;7.72;;;;;;;14.88;59.09;103019.25;5093297;28;20028;-83
2022/03/27 10:40:17;;;;;;;8.95;7.25;;;;;;;14.98;59.19;103016.19;5086640;28;20047;-83
2022/03/27 10:43:24;;;;;;;14.02;9.35;;;;;;;15.72;57.90;103014.22;5048591;28;20032;-83
2022/03/27 10:46:12;;;;;;;12.75;9.45;;;;;;;16.10;56.42;103011.19;5093896;28;20122;-83
2022/03/27 10:48:42;;;;;;;12.10;9.48;;;;;;;16.21;54.27;103018.88;5094292;28;20065;-83
2022/03/27 10:51:08;;;;;;;11.43;8.95;;;;;;;16.28;53.87;103010.69;5094225;28;20467;-82
2022/03/27 10:53:36;;;;;;;12.93;9.43;;;;;;;16.51;53.12;103012.31;5094592;28;20035;-83
2022/03/27 10:56:03;;;;;;;10.63;8.32;;;;;;;16.34;53.36;103007.13;5093047;28;20036;-83
2022/03/27 10:59:05;;;;;;;10.93;8.60;;;;;;;16.54;54.92;103000.94;5093667;28;20038;-83
2022/03/27 11:01:31;;;;;;;9.73;7.75;;;;;;;16.51;52.81;103004.91;5094115;28;20051;-83
2022/03/27 11:04:10;;;;;;;10.00;8.38;;;;;;;16.75;53.38;103002.72;5094524;28;20478;-83
2022/03/27 11:06:42;;;;;;;8.75;7.07;;;;;;;16.89;52.83;102996.25;5109696;28;20044;-83
2022/03/27 11:09:10;;;;;;;10.68;8.63;;;;;;;17.12;51.08;102995.88;5093284;28;20110;-83
2022/03/27 11:11:35;;;;;;;11.18;8.43;;;;;;;17.21;50.82;102990.22;5110061;28;20019;-83
2022/03/27 11:14:02;;;;;;;12.30;9.30;;;;;;;17.41;51.23;102988.34;5094171;28;20085;-83
2022/03/27 11:16:28;;;;;;;11.98;9.68;;;;;;;17.65;50.47;102980.56;5094356;28;20035;-82
2022/03/27 11:18:53;;;;;;;12.65;9.57;;;;;;;18.19;49.87;102978.66;5109539;28;20024;-82
2022/03/27 11:21:28;;;;;;;10.30;8.38;;;;;;;20.36;45.44;102971.28;5075576;28;20107;-83
2022/03/27 11:24:02;;;;;;;11.73;8.93;;;;;;;23.24;41.00;102963.53;5109271;28;20024;-83
2022/03/27 11:26:29;;;;;;;11.18;8.52;;;;;;;25.92;34.13;102962.88;5093864;28;20020;-83
2022/03/27 11:29:04;;;;;;;7.55;6.53;;;;;;;28.11;32.71;102959.09;5109186;28;20090;-83
2022/03/27 11:31:33;;;;;;;8.73;7.50;;;;;;;29.94;27.60;102955.59;5093792;28;20066;-83
2022/03/27 11:34:07;;;;;;;8.60;7.47;;;;;;;31.12;27.24;102957.66;5109285;28;20028;-83
2022/03/27 11:36:34;;;;;;;7.95;6.85;;;;;;;32.04;23.83;102950.66;5093337;28;20024;-83